sensor_id;sensor_type;location;lat;lon;timestamp;pressure;altitude;pressure_sealevel;temperature;humidity
41688;BME280;27371;42.686;23.362;2022-11-20T00:00:08;166012.41;;;14.62;76.29
41688;BME280;27371;42.686;23.362;2022-11-20T00:02:33;166023.09;;;14.66;74.62
41688;BME280;27371;42.686;23.362;2022-11-20T00:04:59;166098.13;;;14.95;72.56
41688;BME280;27371;42.686;23.362;2022-11-20T00:07:24;166119.56;;;15.03;73.11
41688;BME280;27371;42.686;23.362;2022-11-20T00:09:52;166102.13;;;14.96;73.06
41688;BME280;27371;42.686;23.362;2022-11-20T00:12:18;166060.59;;;14.80;73.25
41688;BME280;27371;42.686;23.362;2022-11-20T00:14:44;166123.56;;;15.04;72.76
41688;BME280;27371;42.686;23.362;2022-11-20T00:17:09;166114.22;;;15.01;72.85
41688;BME280;27371;42.686;23.362;2022-11-20T00:19:35;166084.75;;;14.89;73.34
41688;BME280;27371;42.686;23.362;2022-11-20T00:22:00;166130.28;;;15.07;73.63
41688;BME280;27371;42.686;23.362;2022-11-20T00:24:25;166122.25;;;15.04;73.72
41688;BME280;27371;42.686;23.362;2022-11-20T00:26:51;166102.13;;;14.96;73.76
41688;BME280;27371;42.686;23.362;2022-11-20T00:29:16;166096.75;;;14.94;74.48
41688;BME280;27371;42.686;23.362;2022-11-20T00:31:42;166084.75;;;14.89;74.67
41688;BME280;27371;42.686;23.362;2022-11-20T00:34:09;166067.28;;;14.83;74.28
41688;BME280;27371;42.686;23.362;2022-11-20T00:36:34;166096.75;;;14.94;73.91
41688;BME280;27371;42.686;23.362;2022-11-20T00:39:00;166094.09;;;14.93;74.46
41688;BME280;27371;42.686;23.362;2022-11-20T00:41:27;166080.69;;;14.88;74.18
41688;BME280;27371;42.686;23.362;2022-11-20T00:43:53;166072.66;;;14.85;73.87
41688;BME280;27371;42.686;23.362;2022-11-20T00:46:21;166110.16;;;14.99;73.32
41688;BME280;27371;42.686;23.362;2022-11-20T00:48:48;166130.28;;;15.07;71.72
41688;BME280;27371;42.686;23.362;2022-11-20T00:51:16;166154.38;;;15.16;71.45
41688;BME280;27371;42.686;23.362;2022-11-20T00:53:42;166166.44;;;15.21;71.02
41688;BME280;27371;42.686;23.362;2022-11-20T00:56:11;166193.25;;;15.31;69.94
41688;BME280;27371;42.686;23.362;2022-11-20T00:58:39;166212.00;;;15.38;69.41
41688;BME280;27371;42.686;23.362;2022-11-20T01:03:42;166272.31;;;15.61;67.34
41688;BME280;27371;42.686;23.362;2022-11-20T01:06:12;166327.31;;;15.82;66.16
41688;BME280;27371;42.686;23.362;2022-11-20T01:08:38;166383.63;;;16.03;63.70
41688;BME280;27371;42.686;23.362;2022-11-20T01:11:20;166464.03;;;16.34;62.63
41688;BME280;27371;42.686;23.362;2022-11-20T01:13:48;166494.91;;;16.46;61.91
41688;BME280;27371;42.686;23.362;2022-11-20T01:16:19;166523.03;;;16.57;61.33
41688;BME280;27371;42.686;23.362;2022-11-20T01:18:48;166528.41;;;16.59;60.82
41688;BME280;27371;42.686;23.362;2022-11-20T01:21:16;166560.63;;;16.71;60.25
41688;BME280;27371;42.686;23.362;2022-11-20T01:23:42;166622.34;;;16.95;58.04
41688;BME280;27371;42.686;23.362;2022-11-20T01:26:19;166685.38;;;17.19;56.79
41688;BME280;27371;42.686;23.362;2022-11-20T01:28:45;166726.97;;;17.34;55.29
41688;BME280;27371;42.686;23.362;2022-11-20T01:31:23;166772.56;;;17.52;54.59
41688;BME280;27371;42.686;23.362;2022-11-20T01:33:51;166819.50;;;17.70;53.81
41688;BME280;27371;42.686;23.362;2022-11-20T01:36:18;166838.31;;;17.77;54.11
41688;BME280;27371;42.686;23.362;2022-11-20T01:38:44;166845.06;;;17.79;54.65
41688;BME280;27371;42.686;23.362;2022-11-20T01:41:10;166806.13;;;17.65;55.98
41688;BME280;27371;42.686;23.362;2022-11-20T01:43:36;166772.56;;;17.52;56.30
41688;BME280;27371;42.686;23.362;2022-11-20T01:48:43;166698.81;;;17.24;58.33
41688;BME280;27371;42.686;23.362;2022-11-20T01:51:34;166650.50;;;17.05;59.06
41688;BME280;27371;42.686;23.362;2022-11-20T01:54:03;166697.47;;;17.23;55.82
41688;BME280;27371;42.686;23.362;2022-11-20T01:56:31;166745.72;;;17.42;55.35
41688;BME280;27371;42.686;23.362;2022-11-20T01:59:01;166788.66;;;17.58;54.64
41688;BME280;27371;42.686;23.362;2022-11-20T02:01:29;166812.84;;;17.67;54.35
41688;BME280;27371;42.686;23.362;2022-11-20T02:03:55;166828.94;;;17.73;54.24
41688;BME280;27371;42.686;23.362;2022-11-20T02:06:39;166834.31;;;17.75;53.91
41688;BME280;27371;42.686;23.362;2022-11-20T02:09:06;166835.66;;;17.76;54.08
41688;BME280;27371;42.686;23.362;2022-11-20T02:11:31;166783.28;;;17.56;54.45
41688;BME280;27371;42.686;23.362;2022-11-20T02:13:57;166828.94;;;17.73;54.48
41688;BME280;27371;42.686;23.362;2022-11-20T02:16:25;166838.31;;;17.77;53.60
41688;BME280;27371;42.686;23.362;2022-11-20T02:18:53;166858.50;;;17.85;53.86
41688;BME280;27371;42.686;23.362;2022-11-20T02:24:09;166898.72;;;18.00;52.46
41688;BME280;27371;42.686;23.362;2022-11-20T02:26:44;166910.81;;;18.05;51.87
41688;BME280;27371;42.686;23.362;2022-11-20T02:29:11;166925.59;;;18.10;52.39
41688;BME280;27371;42.686;23.362;2022-11-20T02:31:38;166909.50;;;18.04;53.14
41688;BME280;27371;42.686;23.362;2022-11-20T02:34:05;166890.69;;;17.97;53.22
41688;BME280;27371;42.686;23.362;2022-11-20T02:36:32;166889.34;;;17.96;53.23
41688;BME280;27371;42.686;23.362;2022-11-20T02:38:58;166892.06;;;17.97;52.98
41688;BME280;27371;42.686;23.362;2022-11-20T02:41:33;166877.25;;;17.92;52.47
41688;BME280;27371;42.686;23.362;2022-11-20T02:44:00;166892.06;;;17.97;52.83
41688;BME280;27371;42.686;23.362;2022-11-20T02:46:25;166858.50;;;17.85;53.90
41688;BME280;27371;42.686;23.362;2022-11-20T02:48:51;166812.84;;;17.67;53.80
41688;BME280;27371;42.686;23.362;2022-11-20T02:51:16;166803.41;;;17.64;53.68
41688;BME280;27371;42.686;23.362;2022-11-20T02:53:42;166798.09;;;17.62;54.25
41688;BME280;27371;42.686;23.362;2022-11-20T02:56:07;166814.19;;;17.68;53.67
41688;BME280;27371;42.686;23.362;2022-11-20T02:58:33;166838.31;;;17.77;53.22
41688;BME280;27371;42.686;23.362;2022-11-20T03:00:58;166842.41;;;17.78;53.40
41688;BME280;27371;42.686;23.362;2022-11-20T03:03:24;166882.63;;;17.94;53.24
41688;BME280;27371;42.686;23.362;2022-11-20T03:05:49;166906.81;;;18.03;53.27
41688;BME280;27371;42.686;23.362;2022-11-20T03:08:14;166873.25;;;17.90;53.70
41688;BME280;27371;42.686;23.362;2022-11-20T03:10:40;166894.72;;;17.98;53.61
41688;BME280;27371;42.686;23.362;2022-11-20T03:13:05;166894.72;;;17.98;54.05
41688;BME280;27371;42.686;23.362;2022-11-20T03:15:31;166922.91;;;18.09;53.79
41688;BME280;27371;42.686;23.362;2022-11-20T03:17:56;166922.91;;;18.09;53.60
41688;BME280;27371;42.686;23.362;2022-11-20T03:20:22;166926.91;;;18.11;53.98
41688;BME280;27371;42.686;23.362;2022-11-20T03:22:47;166916.19;;;18.07;54.02
41688;BME280;27371;42.686;23.362;2022-11-20T03:25:13;166921.59;;;18.09;53.97
41688;BME280;27371;42.686;23.362;2022-11-20T03:27:38;166920.22;;;18.08;53.68
41688;BME280;27371;42.686;23.362;2022-11-20T03:30:04;166930.97;;;18.12;53.69
41688;BME280;27371;42.686;23.362;2022-11-20T03:32:30;166930.97;;;18.12;53.16
41688;BME280;27371;42.686;23.362;2022-11-20T03:34:56;166960.50;;;18.23;53.03
41688;BME280;27371;42.686;23.362;2022-11-20T03:37:22;166957.81;;;18.22;53.13
41688;BME280;27371;42.686;23.362;2022-11-20T03:39:47;166959.16;;;18.23;52.81
41688;BME280;27371;42.686;23.362;2022-11-20T03:42:12;166952.44;;;18.20;52.88
41688;BME280;27371;42.686;23.362;2022-11-20T03:44:56;166939.00;;;18.15;52.93
41688;BME280;27371;42.686;23.362;2022-11-20T03:47:22;166956.44;;;18.22;52.73
41688;BME280;27371;42.686;23.362;2022-11-20T03:49:47;166945.72;;;18.18;52.95
41688;BME280;27371;42.686;23.362;2022-11-20T03:52:13;166967.19;;;18.26;52.83
41688;BME280;27371;42.686;23.362;2022-11-20T03:54:38;166972.59;;;18.28;52.34
41688;BME280;27371;42.686;23.362;2022-11-20T03:57:03;166967.19;;;18.26;52.81
41688;BME280;27371;42.686;23.362;2022-11-20T03:59:29;166952.44;;;18.20;52.90
41688;BME280;27371;42.686;23.362;2022-11-20T04:01:54;166963.16;;;18.24;52.75
41688;BME280;27371;42.686;23.362;2022-11-20T04:04:19;166959.16;;;18.23;53.04
41688;BME280;27371;42.686;23.362;2022-11-20T04:06:45;166959.16;;;18.23;53.24
41688;BME280;27371;42.686;23.362;2022-11-20T04:09:10;166937.69;;;18.15;53.39
41688;BME280;27371;42.686;23.362;2022-11-20T04:11:37;166928.31;;;18.11;53.32
41688;BME280;27371;42.686;23.362;2022-11-20T04:14:06;166909.50;;;18.04;53.38
41688;BME280;27371;42.686;23.362;2022-11-20T04:16:35;166889.34;;;17.96;53.87
41688;BME280;27371;42.686;23.362;2022-11-20T04:19:04;166873.25;;;17.90;53.76
41688;BME280;27371;42.686;23.362;2022-11-20T04:21:30;166889.34;;;17.96;53.50
41688;BME280;27371;42.686;23.362;2022-11-20T04:23:56;166885.34;;;17.95;53.60
41688;BME280;27371;42.686;23.362;2022-11-20T04:26:23;166881.31;;;17.93;53.46
41688;BME280;27371;42.686;23.362;2022-11-20T04:28:49;166901.44;;;18.01;53.13
41688;BME280;27371;42.686;23.362;2022-11-20T04:31:18;166905.44;;;18.02;52.98
41688;BME280;27371;42.686;23.362;2022-11-20T04:33:44;166912.16;;;18.05;52.39
41688;BME280;27371;42.686;23.362;2022-11-20T04:36:16;166885.34;;;17.95;52.97
41688;BME280;27371;42.686;23.362;2022-11-20T04:38:42;166920.22;;;18.08;53.04
41688;BME280;27371;42.686;23.362;2022-11-20T04:41:12;166885.34;;;17.95;53.29
41688;BME280;27371;42.686;23.362;2022-11-20T04:43:39;166890.69;;;17.97;53.54
41688;BME280;27371;42.686;23.362;2022-11-20T04:46:05;166874.59;;;17.91;53.84
41688;BME280;27371;42.686;23.362;2022-11-20T04:48:30;166873.25;;;17.90;54.31
41688;BME280;27371;42.686;23.362;2022-11-20T04:50:56;166861.16;;;17.86;54.32
41688;BME280;27371;42.686;23.362;2022-11-20T04:53:22;166859.84;;;17.85;54.03
41688;BME280;27371;42.686;23.362;2022-11-20T04:55:48;166853.13;;;17.83;54.17
41688;BME280;27371;42.686;23.362;2022-11-20T04:58:14;166859.84;;;17.85;54.03
41688;BME280;27371;42.686;23.362;2022-11-20T05:00:39;166863.88;;;17.87;54.07
41688;BME280;27371;42.686;23.362;2022-11-20T05:03:05;166866.56;;;17.88;53.59
41688;BME280;27371;42.686;23.362;2022-11-20T05:05:30;166869.22;;;17.89;53.90
41688;BME280;27371;42.686;23.362;2022-11-20T05:07:57;166866.56;;;17.88;54.04
41688;BME280;27371;42.686;23.362;2022-11-20T05:10:24;166849.13;;;17.81;54.14
41688;BME280;27371;42.686;23.362;2022-11-20T05:12:49;166857.16;;;17.84;53.96
41688;BME280;27371;42.686;23.362;2022-11-20T05:15:15;166845.06;;;17.79;54.37
41688;BME280;27371;42.686;23.362;2022-11-20T05:17:40;166850.47;;;17.82;54.12
41688;BME280;27371;42.686;23.362;2022-11-20T05:20:06;166768.53;;;17.50;54.45
41688;BME280;27371;42.686;23.362;2022-11-20T05:22:32;166827.59;;;17.73;54.56
41688;BME280;27371;42.686;23.362;2022-11-20T05:24:57;166828.94;;;17.73;55.07
41688;BME280;27371;42.686;23.362;2022-11-20T05:27:23;166804.75;;;17.64;55.72
41688;BME280;27371;42.686;23.362;2022-11-20T05:29:48;166786.00;;;17.57;57.19
41688;BME280;27371;42.686;23.362;2022-11-20T05:32:14;166759.16;;;17.47;58.42
41688;BME280;27371;42.686;23.362;2022-11-20T05:34:39;166740.41;;;17.40;59.12
41688;BME280;27371;42.686;23.362;2022-11-20T05:37:04;166712.22;;;17.29;60.06
41688;BME280;27371;42.686;23.362;2022-11-20T05:39:30;166670.63;;;17.13;60.86
41688;BME280;27371;42.686;23.362;2022-11-20T05:41:55;166651.84;;;17.06;61.84
41688;BME280;27371;42.686;23.362;2022-11-20T05:44:39;166637.09;;;17.00;62.41
41688;BME280;27371;42.686;23.362;2022-11-20T05:47:05;166629.03;;;16.97;62.71
41688;BME280;27371;42.686;23.362;2022-11-20T05:49:31;166612.97;;;16.91;62.69
41688;BME280;27371;42.686;23.362;2022-11-20T05:51:57;166595.53;;;16.84;63.05
41688;BME280;27371;42.686;23.362;2022-11-20T05:54:22;166590.16;;;16.82;62.98
41688;BME280;27371;42.686;23.362;2022-11-20T05:56:47;166590.16;;;16.82;62.97
41688;BME280;27371;42.686;23.362;2022-11-20T05:59:13;166556.56;;;16.69;62.76
41688;BME280;27371;42.686;23.362;2022-11-20T06:01:38;166594.16;;;16.84;62.64
41688;BME280;27371;42.686;23.362;2022-11-20T06:04:04;166602.19;;;16.87;62.00
41688;BME280;27371;42.686;23.362;2022-11-20T06:06:29;166621.00;;;16.94;61.49
41688;BME280;27371;42.686;23.362;2022-11-20T06:08:55;166623.66;;;16.95;61.52
41688;BME280;27371;42.686;23.362;2022-11-20T06:11:21;166633.09;;;16.99;61.30
41688;BME280;27371;42.686;23.362;2022-11-20T06:13:48;166608.91;;;16.89;60.76
41688;BME280;27371;42.686;23.362;2022-11-20T06:16:29;166653.16;;;17.06;60.77
41688;BME280;27371;42.686;23.362;2022-11-20T06:18:54;166653.16;;;17.06;60.91
41688;BME280;27371;42.686;23.362;2022-11-20T06:21:22;166658.53;;;17.08;60.73
41688;BME280;27371;42.686;23.362;2022-11-20T06:23:50;166649.16;;;17.05;60.72
41688;BME280;27371;42.686;23.362;2022-11-20T06:26:18;166667.97;;;17.12;60.30
41688;BME280;27371;42.686;23.362;2022-11-20T06:28:47;166667.97;;;17.12;60.33
41688;BME280;27371;42.686;23.362;2022-11-20T06:31:14;166654.56;;;17.07;59.64
41688;BME280;27371;42.686;23.362;2022-11-20T06:33:40;166682.72;;;17.18;60.36
41688;BME280;27371;42.686;23.362;2022-11-20T06:36:06;166686.72;;;17.19;60.13
41688;BME280;27371;42.686;23.362;2022-11-20T06:38:32;166685.38;;;17.19;60.36
41688;BME280;27371;42.686;23.362;2022-11-20T06:40:57;166684.06;;;17.18;60.23
41688;BME280;27371;42.686;23.362;2022-11-20T06:43:24;166681.34;;;17.17;60.53
41688;BME280;27371;42.686;23.362;2022-11-20T06:45:54;166681.34;;;17.17;60.01
41688;BME280;27371;42.686;23.362;2022-11-20T06:48:21;166671.97;;;17.13;59.11
41688;BME280;27371;42.686;23.362;2022-11-20T06:50:46;166693.44;;;17.22;59.48
41688;BME280;27371;42.686;23.362;2022-11-20T06:53:12;166700.13;;;17.24;59.27
41688;BME280;27371;42.686;23.362;2022-11-20T06:55:42;166705.53;;;17.26;59.58
41688;BME280;27371;42.686;23.362;2022-11-20T06:58:07;166677.34;;;17.16;59.90
41688;BME280;27371;42.686;23.362;2022-11-20T07:00:33;166692.09;;;17.21;59.63
41688;BME280;27371;42.686;23.362;2022-11-20T07:03:03;166702.81;;;17.25;59.27
41688;BME280;27371;42.686;23.362;2022-11-20T07:05:28;166696.09;;;17.23;58.79
41688;BME280;27371;42.686;23.362;2022-11-20T07:07:56;166718.94;;;17.31;58.41
41688;BME280;27371;42.686;23.362;2022-11-20T07:10:25;166708.19;;;17.27;58.60
41688;BME280;27371;42.686;23.362;2022-11-20T07:12:52;166681.34;;;17.17;58.22
41688;BME280;27371;42.686;23.362;2022-11-20T07:15:19;166702.81;;;17.25;58.13
41688;BME280;27371;42.686;23.362;2022-11-20T07:17:44;166696.09;;;17.23;58.14
41688;BME280;27371;42.686;23.362;2022-11-20T07:20:10;166716.22;;;17.30;57.86
41688;BME280;27371;42.686;23.362;2022-11-20T07:22:35;166689.38;;;17.20;57.83
41688;BME280;27371;42.686;23.362;2022-11-20T07:25:01;166709.50;;;17.28;57.72
41688;BME280;27371;42.686;23.362;2022-11-20T07:27:27;166722.94;;;17.33;57.37
41688;BME280;27371;42.686;23.362;2022-11-20T07:29:53;166729.66;;;17.35;57.20
41688;BME280;27371;42.686;23.362;2022-11-20T07:32:18;166718.94;;;17.31;57.28
41688;BME280;27371;42.686;23.362;2022-11-20T07:34:44;166716.22;;;17.30;57.59
41688;BME280;27371;42.686;23.362;2022-11-20T07:37:09;166720.28;;;17.32;57.26
41688;BME280;27371;42.686;23.362;2022-11-20T07:39:35;166708.19;;;17.27;57.68
41688;BME280;27371;42.686;23.362;2022-11-20T07:42:00;166705.53;;;17.26;57.52
41688;BME280;27371;42.686;23.362;2022-11-20T07:44:26;166721.59;;;17.32;57.36
41688;BME280;27371;42.686;23.362;2022-11-20T07:46:51;166718.94;;;17.31;57.21
41688;BME280;27371;42.686;23.362;2022-11-20T07:49:17;166729.66;;;17.35;57.07
41688;BME280;27371;42.686;23.362;2022-11-20T07:51:42;166724.28;;;17.33;57.03
41688;BME280;27371;42.686;23.362;2022-11-20T07:54:08;166614.28;;;16.91;57.13
41688;BME280;27371;42.686;23.362;2022-11-20T07:56:33;166704.19;;;17.26;57.06
41688;BME280;27371;42.686;23.362;2022-11-20T07:58:59;166622.34;;;16.95;58.04
41688;BME280;27371;42.686;23.362;2022-11-20T08:01:25;166611.63;;;16.90;58.89
41688;BME280;27371;42.686;23.362;2022-11-20T08:03:50;166606.25;;;16.88;59.16
41688;BME280;27371;42.686;23.362;2022-11-20T08:06:16;166596.88;;;16.85;59.57
41688;BME280;27371;42.686;23.362;2022-11-20T08:08:42;166627.72;;;16.97;59.50
41688;BME280;27371;42.686;23.362;2022-11-20T08:11:08;166600.88;;;16.86;59.53
41688;BME280;27371;42.686;23.362;2022-11-20T08:13:52;166650.50;;;17.05;58.92
41688;BME280;27371;42.686;23.362;2022-11-20T08:16:48;166684.06;;;17.18;58.55
41688;BME280;27371;42.686;23.362;2022-11-20T08:19:16;166686.72;;;17.19;58.50
41688;BME280;27371;42.686;23.362;2022-11-20T08:21:42;166694.75;;;17.22;57.68
41688;BME280;27371;42.686;23.362;2022-11-20T08:24:08;166698.81;;;17.24;57.47
41688;BME280;27371;42.686;23.362;2022-11-20T08:26:35;166713.56;;;17.29;57.58
41688;BME280;27371;42.686;23.362;2022-11-20T08:29:02;166716.22;;;17.30;57.16
41688;BME280;27371;42.686;23.362;2022-11-20T08:31:30;166722.94;;;17.33;57.11
41688;BME280;27371;42.686;23.362;2022-11-20T08:33:56;166747.06;;;17.42;57.27
41688;BME280;27371;42.686;23.362;2022-11-20T08:36:22;166722.94;;;17.33;57.33
41688;BME280;27371;42.686;23.362;2022-11-20T08:38:49;166756.50;;;17.46;57.15
41688;BME280;27371;42.686;23.362;2022-11-20T08:41:16;166763.19;;;17.48;57.03
41688;BME280;27371;42.686;23.362;2022-11-20T08:44:03;166773.91;;;17.52;57.15
41688;BME280;27371;42.686;23.362;2022-11-20T08:46:34;166795.38;;;17.61;57.61
41688;BME280;27371;42.686;23.362;2022-11-20T08:49:00;166764.53;;;17.49;57.78
41688;BME280;27371;42.686;23.362;2022-11-20T08:51:26;166779.28;;;17.54;58.15
41688;BME280;27371;42.686;23.362;2022-11-20T08:53:51;166763.19;;;17.48;58.32
41688;BME280;27371;42.686;23.362;2022-11-20T08:56:18;166765.88;;;17.49;58.59
41688;BME280;27371;42.686;23.362;2022-11-20T08:58:46;166759.16;;;17.47;59.01
41688;BME280;27371;42.686;23.362;2022-11-20T09:01:12;166702.81;;;17.25;60.60
41688;BME280;27371;42.686;23.362;2022-11-20T09:03:37;166543.16;;;16.64;62.26
41688;BME280;27371;42.686;23.362;2022-11-20T09:06:05;166461.38;;;16.33;63.68
41688;BME280;27371;42.686;23.362;2022-11-20T09:08:32;166382.28;;;16.03;65.45
41688;BME280;27371;42.686;23.362;2022-11-20T09:10:58;166350.13;;;15.91;66.67
41688;BME280;27371;42.686;23.362;2022-11-20T09:13:25;166312.56;;;15.76;67.89
41688;BME280;27371;42.686;23.362;2022-11-20T09:16:12;166277.69;;;15.63;69.63
41688;BME280;27371;42.686;23.362;2022-11-20T09:18:37;166275.00;;;15.62;70.21
41688;BME280;27371;42.686;23.362;2022-11-20T09:21:08;166246.84;;;15.51;70.61
41688;BME280;27371;42.686;23.362;2022-11-20T09:23:36;166340.72;;;15.87;71.28
41688;BME280;27371;42.686;23.362;2022-11-20T09:26:06;166376.91;;;16.01;69.44
41688;BME280;27371;42.686;23.362;2022-11-20T09:28:32;166384.94;;;16.04;67.20
41688;BME280;27371;42.686;23.362;2022-11-20T09:30:59;166363.50;;;15.96;66.47
41688;BME280;27371;42.686;23.362;2022-11-20T09:33:24;166372.91;;;15.99;67.71
41688;BME280;27371;42.686;23.362;2022-11-20T09:35:50;166344.75;;;15.89;68.09
41688;BME280;27371;42.686;23.362;2022-11-20T09:38:15;166375.56;;;16.00;68.91
41688;BME280;27371;42.686;23.362;2022-11-20T09:40:49;166372.91;;;15.99;69.23
41688;BME280;27371;42.686;23.362;2022-11-20T09:46:09;166340.72;;;15.87;70.90
41688;BME280;27371;42.686;23.362;2022-11-20T09:51:59;166321.97;;;15.80;72.42
41688;BME280;27371;42.686;23.362;2022-11-20T09:54:31;166319.25;;;15.79;72.83
41688;BME280;27371;42.686;23.362;2022-11-20T09:57:00;166327.31;;;15.82;72.84
41688;BME280;27371;42.686;23.362;2022-11-20T09:59:37;166309.91;;;15.75;74.11
41688;BME280;27371;42.686;23.362;2022-11-20T10:02:16;166303.19;;;15.73;74.53
41688;BME280;27371;42.686;23.362;2022-11-20T10:05:27;166273.66;;;15.62;75.35
41688;BME280;27371;42.686;23.362;2022-11-20T10:16:17;166167.78;;;15.21;76.69
41688;BME280;27371;42.686;23.362;2022-11-20T10:24:26;166145.00;;;15.12;76.89
41688;BME280;27371;42.686;23.362;2022-11-20T10:29:32;166153.03;;;15.15;76.92
41688;BME280;27371;42.686;23.362;2022-11-20T10:32:04;166149.06;;;15.14;76.94
41688;BME280;27371;42.686;23.362;2022-11-20T10:34:48;166080.69;;;14.88;77.34
41688;BME280;27371;42.686;23.362;2022-11-20T10:37:20;166157.09;;;15.17;77.67
41688;BME280;27371;42.686;23.362;2022-11-20T10:42:56;166163.78;;;15.20;77.74
41688;BME280;27371;42.686;23.362;2022-11-20T10:50:26;166150.38;;;15.14;77.86
41688;BME280;27371;42.686;23.362;2022-11-20T10:55:39;166236.16;;;15.47;79.01
41688;BME280;27371;42.686;23.362;2022-11-20T11:00:49;166171.81;;;15.23;80.64
41688;BME280;27371;42.686;23.362;2022-11-20T11:03:24;166170.50;;;15.22;81.56
41688;BME280;27371;42.686;23.362;2022-11-20T11:08:32;166171.81;;;15.23;82.50
41688;BME280;27371;42.686;23.362;2022-11-20T11:11:03;166127.63;;;15.06;84.70
41688;BME280;27371;42.686;23.362;2022-11-20T11:13:34;166131.59;;;15.07;85.76
41688;BME280;27371;42.686;23.362;2022-11-20T11:15:59;166106.16;;;14.98;84.10
41688;BME280;27371;42.686;23.362;2022-11-20T11:18:29;166039.22;;;14.72;86.25
41688;BME280;27371;42.686;23.362;2022-11-20T11:20:59;165961.47;;;14.42;81.93
41688;BME280;27371;42.686;23.362;2022-11-20T11:26:04;165911.91;;;14.23;74.69
41688;BME280;27371;42.686;23.362;2022-11-20T11:28:30;165882.44;;;14.12;75.18
41688;BME280;27371;42.686;23.362;2022-11-20T11:30:59;165832.88;;;13.93;75.51
41688;BME280;27371;42.686;23.362;2022-11-20T11:33:26;165803.44;;;13.82;76.52
41688;BME280;27371;42.686;23.362;2022-11-20T11:35:55;165775.31;;;13.71;76.84
41688;BME280;27371;42.686;23.362;2022-11-20T11:38:36;165772.66;;;13.70;78.25
41688;BME280;27371;42.686;23.362;2022-11-20T11:41:04;165761.91;;;13.66;77.26
41688;BME280;27371;42.686;23.362;2022-11-20T11:43:36;165741.81;;;13.58;77.76
41688;BME280;27371;42.686;23.362;2022-11-20T11:54:19;165692.28;;;13.40;77.99
41688;BME280;27371;42.686;23.362;2022-11-20T11:56:45;165682.94;;;13.36;78.98
41688;BME280;27371;42.686;23.362;2022-11-20T11:59:18;165649.47;;;13.23;79.14
41688;BME280;27371;42.686;23.362;2022-11-20T12:01:52;165674.91;;;13.33;79.70
41688;BME280;27371;42.686;23.362;2022-11-20T12:07:04;165658.88;;;13.27;79.43
41688;BME280;27371;42.686;23.362;2022-11-20T12:09:38;165688.31;;;13.38;77.79
41688;BME280;27371;42.686;23.362;2022-11-20T12:12:17;165692.28;;;13.40;75.14
41688;BME280;27371;42.686;23.362;2022-11-20T12:14:48;165771.28;;;13.70;74.43
41688;BME280;27371;42.686;23.362;2022-11-20T12:17:16;165739.16;;;13.57;75.33
41688;BME280;27371;42.686;23.362;2022-11-20T12:19:43;165740.50;;;13.58;76.25
41688;BME280;27371;42.686;23.362;2022-11-20T12:22:30;165744.53;;;13.59;76.99
41688;BME280;27371;42.686;23.362;2022-11-20T12:30:33;165678.94;;;13.34;76.38
41688;BME280;27371;42.686;23.362;2022-11-20T12:44:43;165634.69;;;13.18;78.14
41688;BME280;27371;42.686;23.362;2022-11-20T12:53:43;165629.38;;;13.15;78.58
41688;BME280;27371;42.686;23.362;2022-11-20T13:02:25;165557.09;;;12.88;81.73
41688;BME280;27371;42.686;23.362;2022-11-20T13:05:07;165515.63;;;12.72;82.34
41688;BME280;27371;42.686;23.362;2022-11-20T13:07:36;165522.31;;;12.75;82.89
41688;BME280;27371;42.686;23.362;2022-11-20T13:10:03;165524.97;;;12.76;82.51
41688;BME280;27371;42.686;23.362;2022-11-20T13:12:37;165526.28;;;12.76;82.58
41688;BME280;27371;42.686;23.362;2022-11-20T13:16:13;165518.28;;;12.73;83.04
41688;BME280;27371;42.686;23.362;2022-11-20T13:18:18;165494.19;;;12.64;84.54
41688;BME280;27371;42.686;23.362;2022-11-20T13:20:46;165478.16;;;12.58;85.74
41688;BME280;27371;42.686;23.362;2022-11-20T13:23:23;165500.91;;;12.66;85.48
41688;BME280;27371;42.686;23.362;2022-11-20T13:25:50;165498.25;;;12.65;85.87
41688;BME280;27371;42.686;23.362;2022-11-20T13:30:53;165520.97;;;12.74;83.85
41688;BME280;27371;42.686;23.362;2022-11-20T13:33:30;165547.69;;;12.84;81.94
41688;BME280;27371;42.686;23.362;2022-11-20T13:35:59;165538.34;;;12.81;82.75
41688;BME280;27371;42.686;23.362;2022-11-20T13:38:24;165553.06;;;12.86;84.23
41688;BME280;27371;42.686;23.362;2022-11-20T13:43:32;165554.41;;;12.87;83.96
41688;BME280;27371;42.686;23.362;2022-11-20T13:46:09;165550.41;;;12.85;84.43
41688;BME280;27371;42.686;23.362;2022-11-20T13:48:40;165546.38;;;12.84;84.26
41688;BME280;27371;42.686;23.362;2022-11-20T13:51:33;165541.00;;;12.82;84.58
41688;BME280;27371;42.686;23.362;2022-11-20T14:02:17;165551.75;;;12.86;85.70
41688;BME280;27371;42.686;23.362;2022-11-20T14:04:46;165566.47;;;12.91;86.47
41688;BME280;27371;42.686;23.362;2022-11-20T14:07:14;165581.19;;;12.97;85.91
41688;BME280;27371;42.686;23.362;2022-11-20T14:09:50;165585.22;;;12.99;85.98
41688;BME280;27371;42.686;23.362;2022-11-20T14:12:18;165589.19;;;13.00;85.76
41688;BME280;27371;42.686;23.362;2022-11-20T14:14:49;165606.63;;;13.07;86.11
41688;BME280;27371;42.686;23.362;2022-11-20T14:17:20;165589.19;;;13.00;85.95
41688;BME280;27371;42.686;23.362;2022-11-20T14:19:46;165617.31;;;13.11;85.82
41688;BME280;27371;42.686;23.362;2022-11-20T14:22:23;165613.31;;;13.09;85.66
41688;BME280;27371;42.686;23.362;2022-11-20T14:25:00;165622.69;;;13.13;86.23
41688;BME280;27371;42.686;23.362;2022-11-20T14:27:26;165636.06;;;13.18;86.09
41688;BME280;27371;42.686;23.362;2022-11-20T14:29:52;165644.09;;;13.21;86.01